Time;durP1;ratioP1;P1;durP2;ratioP2;P2;SDS_P1;SDS_P2;PMS_P1;PMS_P2;Temp;Humidity;BMP_temperature;BMP_pressure;BME280_temperature;BME280_humidity;BME280_pressure;Samples;Min_cycle;Max_cycle;Signal;HPM_P1;HPM_P2
2021/01/23 00:00:16;;;;;;;8.57;5.80;;;;;;;4.96;42.47;99344.16;5067598;28;20029;-70
2021/01/23 00:02:43;;;;;;;8.80;6.13;;;;;;;4.95;42.63;99347.84;5054405;28;20094;-70
2021/01/23 00:05:11;;;;;;;10.50;6.50;;;;;;;4.94;42.87;99349.69;5057202;28;20078;-70
2021/01/23 00:07:38;;;;;;;9.98;6.30;;;;;;;4.93;42.80;99345.28;5073908;28;20064;-70
2021/01/23 00:10:07;;;;;;;9.68;6.60;;;;;;;4.94;42.83;99343.41;5070366;28;20048;-69
2021/01/23 00:12:40;;;;;;;10.10;6.60;;;;;;;4.94;42.58;99348.81;5052736;28;20136;-70
2021/01/23 00:15:09;;;;;;;9.50;6.93;;;;;;;4.93;42.64;99342.59;5055168;28;20116;-69
2021/01/23 00:17:37;;;;;;;9.82;6.55;;;;;;;4.92;42.93;99340.00;5054680;28;20120;-70
2021/01/23 00:20:05;;;;;;;10.30;6.20;;;;;;;4.93;42.70;99339.88;5034031;28;20045;-70
2021/01/23 00:22:33;;;;;;;8.60;5.90;;;;;;;4.91;42.81;99339.13;5054140;28;20037;-69
2021/01/23 00:25:01;;;;;;;9.77;6.38;;;;;;;4.91;43.11;99341.00;5052637;28;20041;-70
2021/01/23 00:27:30;;;;;;;10.90;6.45;;;;;;;4.91;42.65;99335.56;5073565;28;20133;-69
2021/01/23 00:29:58;;;;;;;9.45;6.63;;;;;;;4.93;42.75;99330.88;5071649;28;20044;-75
2021/01/23 00:32:26;;;;;;;9.35;5.93;;;;;;;4.91;42.89;99333.72;5053949;28;20077;-69
2021/01/23 00:34:55;;;;;;;9.57;5.57;;;;;;;4.92;42.99;99334.59;5053615;28;20033;-69
2021/01/23 00:37:22;;;;;;;8.32;5.90;;;;;;;4.92;42.86;99332.72;5070915;28;20052;-69
2021/01/23 00:39:49;;;;;;;7.97;6.03;;;;;;;4.92;42.96;99340.00;5072782;28;20049;-69
2021/01/23 00:42:16;;;;;;;7.95;6.07;;;;;;;4.93;42.96;99342.59;5056901;28;20072;-69
2021/01/23 00:44:43;;;;;;;8.57;6.25;;;;;;;4.93;43.02;99337.16;5051964;28;20065;-69
2021/01/23 00:47:11;;;;;;;9.48;6.38;;;;;;;4.95;42.84;99347.84;5053069;28;20043;-69
2021/01/23 00:49:40;;;;;;;9.45;6.78;;;;;;;4.94;42.75;99349.69;5052592;28;20040;-69
2021/01/23 00:52:08;;;;;;;8.40;6.15;;;;;;;4.93;42.89;99345.28;5068533;28;20044;-69
2021/01/23 00:54:37;;;;;;;10.43;6.82;;;;;;;4.93;42.79;99347.16;5077603;28;20040;-69
2021/01/23 00:57:05;;;;;;;9.65;6.05;;;;;;;4.93;42.80;99357.97;5060892;28;20119;-69
2021/01/23 00:59:32;;;;;;;9.18;6.32;;;;;;;4.91;42.79;99358.09;5051378;28;20037;-69
2021/01/23 01:01:59;;;;;;;10.65;6.38;;;;;;;4.91;42.72;99365.38;5063887;28;20044;-69
2021/01/23 01:04:37;;;;;;;9.38;6.05;;;;;;;4.91;42.85;99368.09;5052235;28;20041;-69
2021/01/23 01:07:05;;;;;;;9.40;6.43;;;;;;;4.89;42.89;99364.63;5063881;28;20048;-69
2021/01/23 01:09:32;;;;;;;9.05;6.15;;;;;;;4.89;42.91;99362.78;5072419;28;20044;-69
2021/01/23 01:11:59;;;;;;;9.82;6.15;;;;;;;4.89;42.86;99365.50;5063775;28;20346;-69
2021/01/23 01:14:27;;;;;;;7.97;5.45;;;;;;;4.88;42.91;99363.78;5052311;28;20055;-69
2021/01/23 01:16:54;;;;;;;9.23;5.68;;;;;;;4.89;42.95;99372.78;5058878;28;20431;-69
2021/01/23 01:19:21;;;;;;;9.63;5.80;;;;;;;4.88;43.11;99371.03;5052401;28;20120;-69
2021/01/23 01:21:49;;;;;;;9.82;6.53;;;;;;;4.87;42.61;99370.19;5058512;28;20475;-69
2021/01/23 01:24:16;;;;;;;8.80;5.28;;;;;;;4.86;42.64;99371.16;5071434;28;20044;-69
2021/01/23 01:26:43;;;;;;;9.95;6.25;;;;;;;4.84;42.68;99365.91;5067521;28;20055;-69
2021/01/23 01:29:11;;;;;;;10.40;5.95;;;;;;;4.83;42.94;99368.75;5050942;28;20120;-69
2021/01/23 01:31:38;;;;;;;7.50;5.13;;;;;;;4.81;42.96;99368.88;5056404;28;20040;-69
2021/01/23 01:34:06;;;;;;;8.55;6.03;;;;;;;4.80;42.88;99369.88;5073039;28;20146;-69
2021/01/23 01:36:34;;;;;;;9.27;5.63;;;;;;;4.79;43.13;99364.56;5057119;28;20072;-69
2021/01/23 01:39:03;;;;;;;7.95;5.57;;;;;;;4.79;42.94;99367.28;5072128;28;20044;-69
2021/01/23 01:41:30;;;;;;;10.30;6.15;;;;;;;4.77;42.94;99372.81;5070303;28;20068;-69
2021/01/23 01:43:58;;;;;;;8.73;5.65;;;;;;;4.76;43.27;99372.97;5051578;28;20463;-69
2021/01/23 01:46:28;;;;;;;8.40;5.57;;;;;;;4.77;43.27;99370.13;5052367;28;20506;-69
2021/01/23 01:48:56;;;;;;;7.63;5.38;;;;;;;4.74;43.07;99362.28;5047964;28;20045;-69
2021/01/23 01:51:23;;;;;;;7.45;5.22;;;;;;;4.73;43.20;99365.09;5052025;28;20064;-69
2021/01/23 01:53:53;;;;;;;10.77;5.95;;;;;;;4.74;43.37;99369.53;5055588;28;20039;-69
2021/01/23 01:56:21;;;;;;;9.50;5.90;;;;;;;4.72;43.13;99361.53;5052438;28;20049;-69
2021/01/23 01:58:48;;;;;;;7.90;5.47;;;;;;;4.70;43.42;99370.78;5069872;28;20069;-69
2021/01/23 02:01:16;;;;;;;9.02;5.22;;;;;;;4.70;43.11;99362.66;5072667;28;20623;-69
2021/01/23 02:03:59;;;;;;;8.82;5.57;;;;;;;4.71;43.54;99367.94;5055680;28;20045;-69
2021/01/23 02:07:03;;;;;;;7.88;5.78;;;;;;;4.70;43.44;99370.78;5051235;28;20053;-69
2021/01/23 02:10:11;;;;;;;9.52;5.57;;;;;;;4.67;43.41;99362.94;5045983;28;20558;-69
2021/01/23 02:13:06;;;;;;;8.00;5.90;;;;;;;4.66;43.41;99353.94;5058068;28;20036;-69
2021/01/23 02:15:38;;;;;;;10.20;6.30;;;;;;;4.62;43.29;99349.75;5051962;28;20037;-69
2021/01/23 02:18:09;;;;;;;8.32;5.68;;;;;;;4.62;43.51;99355.19;5052670;28;20052;-70
2021/01/23 02:21:30;;;;;;;8.88;5.60;;;;;;;4.56;43.74;99342.16;5051866;28;20041;-70
2021/01/23 02:24:02;;;;;;;9.45;5.60;;;;;;;4.56;43.33;99335.91;5068198;28;20545;-70
2021/01/23 02:26:42;;;;;;;8.50;5.20;;;;;;;4.56;43.66;99338.59;5072519;28;20040;-70
2021/01/23 02:29:21;;;;;;;10.25;6.00;;;;;;;4.56;43.67;99342.16;5052313;28;20112;-69
2021/01/23 02:31:53;;;;;;;7.80;5.32;;;;;;;4.54;43.42;99346.00;5051306;28;20476;-70
2021/01/23 02:34:23;;;;;;;8.43;5.70;;;;;;;4.52;43.47;99342.59;5069918;28;20071;-69
2021/01/23 02:36:51;;;;;;;8.05;5.18;;;;;;;4.51;43.51;99347.13;5053927;28;20045;-69
2021/01/23 02:39:21;;;;;;;7.63;4.97;;;;;;;4.52;43.72;99348.84;5055625;28;20055;-70
2021/01/23 02:41:49;;;;;;;9.13;5.35;;;;;;;4.51;43.67;99348.97;5054940;28;20083;-70
2021/01/23 02:44:16;;;;;;;8.85;5.53;;;;;;;4.52;43.62;99348.00;5071252;28;20094;-69
2021/01/23 02:46:45;;;;;;;7.60;5.10;;;;;;;4.52;43.64;99354.28;5055135;28;20067;-70
2021/01/23 02:49:14;;;;;;;8.07;4.90;;;;;;;4.54;43.68;99357.69;5069479;28;20040;-70
2021/01/23 02:51:46;;;;;;;8.18;4.95;;;;;;;4.55;43.79;99362.13;5075898;28;20492;-70
2021/01/23 02:54:18;;;;;;;7.20;4.95;;;;;;;4.56;44.06;99366.53;5061692;28;20033;-69
2021/01/23 02:56:47;;;;;;;9.32;5.10;;;;;;;4.56;43.82;99360.28;5055285;28;20041;-70
2021/01/23 02:59:17;;;;;;;7.97;4.78;;;;;;;4.59;43.80;99363.59;5068186;28;20040;-70
2021/01/23 03:01:45;;;;;;;7.75;4.80;;;;;;;4.60;43.63;99364.44;5072523;28;20547;-70
2021/01/23 03:04:15;;;;;;;8.07;5.40;;;;;;;4.62;43.93;99354.31;5036343;28;20117;-70
2021/01/23 03:06:43;;;;;;;7.57;5.40;;;;;;;4.62;43.77;99357.03;5059276;28;20041;-69
2021/01/23 03:09:20;;;;;;;7.13;4.68;;;;;;;4.64;43.86;99358.63;5064660;28;20040;-70
2021/01/23 03:11:49;;;;;;;6.78;4.40;;;;;;;4.62;43.73;99359.75;5041403;28;20041;-69
2021/01/23 03:14:18;;;;;;;6.65;4.45;;;;;;;4.62;43.79;99349.75;5065042;28;20040;-70
2021/01/23 03:16:49;;;;;;;7.70;4.80;;;;;;;4.63;43.82;99346.06;5053412;28;20392;-69
2021/01/23 03:19:18;;;;;;;6.95;4.90;;;;;;;4.63;43.78;99347.91;5057419;28;20044;-70
2021/01/23 03:21:48;;;;;;;7.35;4.55;;;;;;;4.63;43.71;99339.78;5054922;28;20049;-70
2021/01/23 03:24:15;;;;;;;7.50;4.78;;;;;;;4.63;43.78;99343.38;5059983;28;20503;-70
2021/01/23 03:26:43;;;;;;;7.72;4.45;;;;;;;4.63;43.62;99340.66;5053940;28;20472;-70
2021/01/23 03:29:10;;;;;;;7.15;4.45;;;;;;;4.63;43.73;99337.94;5062494;28;20102;-70
2021/01/23 03:31:38;;;;;;;7.03;4.32;;;;;;;4.65;43.69;99344.09;5053548;28;20037;-70
2021/01/23 03:34:06;;;;;;;5.68;4.28;;;;;;;4.65;43.83;99345.94;5062039;28;20044;-70
2021/01/23 03:36:34;;;;;;;7.55;4.00;;;;;;;4.65;43.69;99335.97;5055302;28;20047;-70
2021/01/23 03:39:02;;;;;;;8.02;4.65;;;;;;;4.66;43.60;99334.97;5054405;28;20091;-70
2021/01/23 03:41:30;;;;;;;6.80;4.05;;;;;;;4.66;43.61;99328.72;5059170;28;20098;-70
2021/01/23 03:43:57;;;;;;;6.57;4.88;;;;;;;4.66;43.73;99328.72;5057830;28;20052;-70
2021/01/23 03:46:26;;;;;;;6.97;4.20;;;;;;;4.67;43.49;99327.72;5052549;28;20060;-70
2021/01/23 03:48:53;;;;;;;7.15;4.25;;;;;;;4.66;43.45;99317.88;5056712;28;20041;-70
2021/01/23 03:51:20;;;;;;;6.65;4.00;;;;;;;4.66;43.58;99323.28;5056847;28;20060;-70
2021/01/23 03:53:48;;;;;;;7.95;4.25;;;;;;;4.67;43.62;99316.88;5056464;28;20411;-70
2021/01/23 03:56:15;;;;;;;7.05;4.05;;;;;;;4.64;43.80;99312.59;5057189;28;20068;-69
2021/01/23 03:58:43;;;;;;;6.45;4.20;;;;;;;4.64;43.71;99309.88;5053107;28;20041;-70
2021/01/23 04:01:10;;;;;;;7.40;4.47;;;;;;;4.65;43.61;99314.31;5057793;28;20499;-69
2021/01/23 04:03:38;;;;;;;6.47;4.20;;;;;;;4.66;43.90;99310.59;5054044;28;20057;-69
2021/01/23 04:06:05;;;;;;;7.65;4.30;;;;;;;4.65;43.88;99308.88;5057994;28;20049;-70
2021/01/23 04:08:33;;;;;;;6.28;4.15;;;;;;;4.66;43.75;99316.03;5053785;28;20040;-70
2021/01/23 04:11:01;;;;;;;6.82;4.38;;;;;;;4.65;43.61;99306.19;5057350;28;20050;-69
2021/01/23 04:13:49;;;;;;;7.72;4.20;;;;;;;4.63;43.86;99302.75;5036481;28;20067;-70
2021/01/23 04:16:36;;;;;;;6.68;3.72;;;;;;;4.61;43.49;99303.84;5049488;28;20053;-69
2021/01/23 04:19:23;;;;;;;6.13;4.00;;;;;;;4.60;43.66;99303.03;5055127;28;20048;-69
2021/01/23 04:22:10;;;;;;;7.13;4.10;;;;;;;4.60;43.69;99307.56;5073175;28;20052;-70
2021/01/23 04:24:58;;;;;;;6.43;4.00;;;;;;;4.58;43.58;99296.00;5065584;28;20037;-69
2021/01/23 04:27:46;;;;;;;7.38;4.05;;;;;;;4.57;43.75;99297.00;5053828;28;20094;-69
2021/01/23 04:30:33;;;;;;;6.68;4.30;;;;;;;4.54;43.61;99303.53;5063609;28;20079;-70
2021/01/23 04:33:20;;;;;;;6.15;4.13;;;;;;;4.52;43.78;99305.53;5073623;28;20118;-69
2021/01/23 04:36:08;;;;;;;7.43;4.00;;;;;;;4.52;43.96;99293.84;5056978;28;20045;-69
2021/01/23 04:38:55;;;;;;;5.45;3.42;;;;;;;4.51;43.67;99289.41;5045279;28;20056;-70
2021/01/23 04:41:42;;;;;;;6.00;4.00;;;;;;;4.50;43.76;99290.41;5073089;28;20080;-70
2021/01/23 04:44:30;;;;;;;5.95;3.83;;;;;;;4.51;43.84;99282.16;5072489;28;20147;-70
2021/01/23 04:47:17;;;;;;;7.22;4.00;;;;;;;4.50;43.97;99282.28;5053174;28;20146;-70
2021/01/23 04:50:20;;;;;;;6.25;3.83;;;;;;;4.50;44.04;99283.13;5053685;28;20056;-69
2021/01/23 04:53:07;;;;;;;7.60;3.58;;;;;;;4.50;44.10;99290.41;5030926;28;20049;-69
2021/01/23 04:55:54;;;;;;;6.60;3.90;;;;;;;4.51;43.96;99271.31;5023492;28;20444;-70
2021/01/23 04:58:41;;;;;;;6.60;3.95;;;;;;;4.51;44.14;99271.31;5016843;28;20081;-69
2021/01/23 05:01:29;;;;;;;6.43;4.00;;;;;;;4.54;44.20;99273.75;5015365;28;20101;-70
2021/01/23 05:04:16;;;;;;;5.78;3.92;;;;;;;4.53;44.29;99271.16;5008699;28;20096;-70
2021/01/23 05:07:03;;;;;;;7.80;4.10;;;;;;;4.55;44.02;99266.47;5011104;28;20050;-70
2021/01/23 05:09:50;;;;;;;7.35;4.15;;;;;;;4.55;44.09;99271.91;5010389;28;20069;-69
2021/01/23 05:12:39;;;;;;;6.20;4.00;;;;;;;4.55;44.15;99267.34;5030713;28;20057;-69
2021/01/23 05:15:28;;;;;;;5.78;3.70;;;;;;;4.56;43.73;99266.34;5023753;28;20097;-69
2021/01/23 05:18:16;;;;;;;5.78;3.63;;;;;;;4.56;43.85;99271.75;5015525;28;20053;-69
2021/01/23 05:21:09;;;;;;;6.63;4.20;;;;;;;4.58;44.18;99280.63;5004602;28;20058;-69
2021/01/23 05:24:05;;;;;;;6.53;3.50;;;;;;;4.58;44.28;99272.50;5030503;28;20049;-70
2021/01/23 05:26:56;;;;;;;6.00;4.00;;;;;;;4.58;44.27;99267.09;5015689;28;20108;-70
2021/01/23 05:29:58;;;;;;;7.00;4.00;;;;;;;4.58;44.36;99263.50;5028042;28;20072;-70
2021/01/23 05:32:45;;;;;;;6.63;4.63;;;;;;;4.55;43.92;99271.91;5048888;28;20102;-69
2021/01/23 05:35:16;;;;;;;5.47;3.78;;;;;;;4.58;44.15;99268.94;5051343;28;20127;-69
2021/01/23 05:37:43;;;;;;;8.45;3.92;;;;;;;4.56;44.18;99266.34;5057029;28;20119;-70
2021/01/23 05:40:11;;;;;;;6.18;3.50;;;;;;;4.57;44.21;99257.25;5051186;28;20116;-70
2021/01/23 05:42:44;;;;;;;7.82;3.72;;;;;;;4.57;44.44;99259.09;5032945;28;20037;-70
2021/01/23 05:45:28;;;;;;;5.93;3.60;;;;;;;4.56;44.28;99255.53;5059861;28;20056;-69
2021/01/23 05:48:15;;;;;;;6.80;4.57;;;;;;;4.56;44.23;99250.09;5062870;28;20492;-69
2021/01/23 05:50:44;;;;;;;6.80;4.20;;;;;;;4.57;44.08;99254.53;5051761;28;20043;-69
2021/01/23 05:53:31;;;;;;;6.28;3.95;;;;;;;4.56;44.20;99260.94;5052029;28;20134;-70
2021/01/23 05:56:18;;;;;;;5.72;3.90;;;;;;;4.55;44.38;99256.50;5054668;28;20052;-69
2021/01/23 05:58:46;;;;;;;6.72;4.32;;;;;;;4.56;44.38;99258.22;5051887;28;20558;-70
2021/01/23 06:01:15;;;;;;;6.93;4.22;;;;;;;4.55;44.28;99261.91;5055268;28;20048;-70
2021/01/23 06:04:03;;;;;;;7.47;4.50;;;;;;;4.53;44.29;99263.91;5051444;28;20099;-70
2021/01/23 06:06:44;;;;;;;5.88;3.92;;;;;;;4.53;44.99;99261.19;5050636;28;20072;-70
2021/01/23 06:09:38;;;;;;;6.63;4.25;;;;;;;4.53;44.51;99260.31;5035109;28;20073;-69
2021/01/23 06:12:15;;;;;;;7.13;4.25;;;;;;;4.52;44.17;99261.34;5058991;28;20068;-69
2021/01/23 06:15:02;;;;;;;6.50;3.80;;;;;;;4.49;44.31;99264.31;5054779;28;20087;-69
2021/01/23 06:17:47;;;;;;;6.07;4.13;;;;;;;4.51;44.60;99257.78;5062368;28;20125;-70
2021/01/23 06:20:56;;;;;;;8.00;4.20;;;;;;;4.53;44.75;99269.31;5055019;28;20037;-70
2021/01/23 06:23:49;;;;;;;8.32;4.55;;;;;;;4.50;44.85;99255.19;5014223;28;20056;-69
2021/01/23 06:26:20;;;;;;;6.50;4.10;;;;;;;4.50;44.66;99260.63;5045561;28;20148;-69
2021/01/23 06:28:49;;;;;;;6.75;4.07;;;;;;;4.51;44.51;99265.91;5059388;28;20068;-69
2021/01/23 06:31:37;;;;;;;7.75;4.15;;;;;;;4.51;44.44;99267.75;5059170;28;20049;-69
2021/01/23 06:34:26;;;;;;;6.78;3.78;;;;;;;4.53;44.51;99271.16;5056117;28;20439;-69
2021/01/23 06:37:22;;;;;;;6.32;3.70;;;;;;;4.56;45.18;99285.31;5054522;28;20053;-69
2021/01/23 06:40:12;;;;;;;7.53;4.18;;;;;;;4.55;44.93;99291.72;5052286;28;20044;-69
2021/01/23 06:43:05;;;;;;;6.05;3.53;;;;;;;4.56;45.10;99290.72;5069835;28;20399;-69
2021/01/23 06:45:37;;;;;;;8.20;4.10;;;;;;;4.58;44.91;99296.88;5074680;28;20033;-69
2021/01/23 06:48:15;;;;;;;7.50;4.50;;;;;;;4.59;44.66;99297.72;5058950;28;20053;-69
2021/01/23 06:50:43;;;;;;;7.00;3.90;;;;;;;4.63;44.77;99288.34;5054815;28;20125;-69
2021/01/23 06:53:21;;;;;;;7.53;4.18;;;;;;;4.66;45.26;99296.22;5069761;28;20048;-69
2021/01/23 06:55:52;;;;;;;6.20;3.70;;;;;;;4.65;44.87;99292.63;5074627;28;20127;-69
2021/01/23 06:58:39;;;;;;;6.47;3.72;;;;;;;4.64;44.87;99290.06;5057306;28;20049;-69
2021/01/23 07:01:16;;;;;;;5.20;3.55;;;;;;;4.68;45.09;99294.22;5054164;28;20049;-69
2021/01/23 07:04:06;;;;;;;7.60;3.95;;;;;;;4.68;44.76;99284.25;5041158;28;20045;-69
2021/01/23 07:06:55;;;;;;;6.57;3.75;;;;;;;4.68;44.75;99280.69;5055932;28;20498;-69
2021/01/23 07:09:43;;;;;;;6.53;4.20;;;;;;;4.72;45.21;99287.53;5074882;28;20052;-69
2021/01/23 07:12:36;;;;;;;7.10;3.63;;;;;;;4.70;45.06;99292.22;5069068;28;20053;-69
2021/01/23 07:15:06;;;;;;;5.88;3.78;;;;;;;4.70;44.80;99286.81;5054006;28;20123;-69
2021/01/23 07:17:53;;;;;;;7.25;3.90;;;;;;;4.69;44.70;99285.94;5061315;28;20060;-69
2021/01/23 07:20:40;;;;;;;8.05;4.38;;;;;;;4.70;44.76;99284.97;5054089;28;20063;-69
2021/01/23 07:23:07;;;;;;;7.93;4.40;;;;;;;4.72;44.63;99291.09;5064029;28;20044;-69
2021/01/23 07:25:35;;;;;;;8.00;4.22;;;;;;;4.71;44.98;99292.09;5074985;28;20102;-69
2021/01/23 07:28:24;;;;;;;6.20;3.97;;;;;;;4.72;45.10;99285.69;5063729;28;20059;-69
2021/01/23 07:30:51;;;;;;;5.63;3.58;;;;;;;4.73;44.79;99290.13;5052869;28;20056;-69
2021/01/23 07:33:38;;;;;;;5.88;3.70;;;;;;;4.73;45.02;99289.25;5058193;28;20061;-69
2021/01/23 07:36:35;;;;;;;6.60;3.90;;;;;;;4.76;45.20;99289.00;5054277;28;20508;-69
2021/01/23 07:39:06;;;;;;;6.38;3.75;;;;;;;4.74;44.89;99281.00;5067976;28;20049;-69
2021/01/23 07:41:55;;;;;;;7.72;4.13;;;;;;;4.76;44.97;99286.28;5064941;28;20048;-69
2021/01/23 07:44:26;;;;;;;5.82;3.58;;;;;;;4.78;45.07;99276.16;5053879;28;20041;-69
2021/01/23 07:47:13;;;;;;;6.55;3.50;;;;;;;4.76;45.26;99276.31;5054262;28;20136;-69
2021/01/23 07:49:43;;;;;;;6.93;4.30;;;;;;;4.77;45.21;99280.72;5064811;28;20040;-69
2021/01/23 07:52:30;;;;;;;5.75;3.70;;;;;;;4.77;44.82;99275.31;5065313;28;20106;-69
2021/01/23 07:55:17;;;;;;;6.18;3.75;;;;;;;4.79;45.33;99276.03;5048804;28;20091;-69
2021/01/23 07:58:08;;;;;;;6.18;3.72;;;;;;;4.80;45.23;99274.19;5066104;28;20080;-69
2021/01/23 08:00:39;;;;;;;6.15;3.42;;;;;;;4.82;45.16;99280.34;5064000;28;20028;-69
2021/01/23 08:03:35;;;;;;;6.28;4.13;;;;;;;4.84;45.50;99278.34;5048296;28;20045;-69
2021/01/23 08:06:03;;;;;;;6.28;3.85;;;;;;;4.83;45.12;99269.38;5053801;28;20114;-69
2021/01/23 08:08:51;;;;;;;8.02;4.20;;;;;;;4.83;45.33;99273.94;5059167;28;20449;-69
2021/01/23 08:11:41;;;;;;;6.55;3.55;;;;;;;4.84;45.27;99279.22;5067205;28;20049;-69
2021/01/23 08:14:28;;;;;;;5.80;3.95;;;;;;;4.86;45.11;99270.94;5056792;28;20045;-69
2021/01/23 08:17:16;;;;;;;4.90;3.22;;;;;;;4.89;45.02;99272.53;5066484;28;20103;-69
2021/01/23 08:20:05;;;;;;;6.75;3.83;;;;;;;4.89;45.27;99269.81;5063297;28;20105;-68
2021/01/23 08:23:06;;;;;;;6.13;3.38;;;;;;;4.92;45.49;99273.13;5047570;28;20486;-68
2021/01/23 08:25:54;;;;;;;6.22;4.03;;;;;;;4.91;45.14;99271.41;5058661;28;20087;-69
2021/01/23 08:28:44;;;;;;;6.22;3.60;;;;;;;4.93;45.23;99277.56;5053137;28;20045;-69
2021/01/23 08:31:31;;;;;;;6.47;3.53;;;;;;;4.93;45.46;99274.84;5055020;28;20365;-70
2021/01/23 08:34:19;;;;;;;6.53;3.75;;;;;;;4.95;45.26;99272.84;5047673;28;20079;-70
2021/01/23 08:37:06;;;;;;;6.78;3.65;;;;;;;4.95;45.07;99270.13;5060111;28;20495;-70
2021/01/23 08:39:53;;;;;;;6.15;3.90;;;;;;;4.96;45.35;99277.25;5048503;28;20052;-70
2021/01/23 08:42:40;;;;;;;5.70;3.47;;;;;;;4.98;45.45;99272.56;5053000;28;20041;-70
2021/01/23 08:45:27;;;;;;;7.22;3.97;;;;;;;5.00;45.29;99270.59;5054316;28;20080;-70
2021/01/23 08:48:16;;;;;;;5.85;3.75;;;;;;;5.00;45.38;99270.59;5061177;28;20621;-69
2021/01/23 08:51:05;;;;;;;6.43;3.60;;;;;;;5.03;45.25;99266.72;5062925;28;20053;-70
2021/01/23 08:53:52;;;;;;;6.35;3.78;;;;;;;5.04;45.08;99276.56;5064098;28;20049;-69
2021/01/23 08:56:39;;;;;;;6.82;4.00;;;;;;;5.06;45.45;99280.03;5051651;28;20420;-69
2021/01/23 08:59:26;;;;;;;6.50;3.72;;;;;;;5.07;45.41;99279.91;5062743;28;20086;-69
2021/01/23 09:01:55;;;;;;;6.47;3.90;;;;;;;5.08;45.21;99278.91;5051765;28;20053;-69
2021/01/23 09:04:33;;;;;;;7.47;3.92;;;;;;;5.10;45.16;99276.88;5052388;28;20041;-69
2021/01/23 09:07:09;;;;;;;6.95;4.15;;;;;;;5.12;45.26;99274.91;5051689;28;20052;-69
2021/01/23 09:09:37;;;;;;;7.15;4.00;;;;;;;5.14;45.31;99274.78;5062134;28;20032;-69
2021/01/23 09:12:05;;;;;;;7.65;4.03;;;;;;;5.15;45.34;99271.94;5054452;28;20045;-69
2021/01/23 09:14:42;;;;;;;7.63;4.10;;;;;;;5.16;45.34;99270.94;5058438;28;20045;-69
2021/01/23 09:17:29;;;;;;;6.88;3.63;;;;;;;5.18;45.32;99268.09;5047286;28;20388;-69
2021/01/23 09:19:57;;;;;;;7.18;4.00;;;;;;;5.21;45.39;99262.38;5056780;28;20041;-69
2021/01/23 09:22:25;;;;;;;5.65;3.63;;;;;;;5.24;45.44;99267.56;5051378;28;20083;-69
2021/01/23 09:24:52;;;;;;;6.68;3.95;;;;;;;5.26;45.41;99276.41;5056752;28;20098;-69
2021/01/23 09:27:19;;;;;;;5.88;3.78;;;;;;;5.27;45.36;99263.69;5051480;28;20041;-69
2021/01/23 09:29:47;;;;;;;6.15;3.60;;;;;;;5.30;45.62;99264.28;5049423;28;20037;-69
2021/01/23 09:32:14;;;;;;;8.18;4.38;;;;;;;5.31;45.35;99260.56;5051489;28;20059;-69
2021/01/23 09:34:41;;;;;;;6.85;4.00;;;;;;;5.33;45.46;99268.56;5055008;28;20463;-69
2021/01/23 09:37:08;;;;;;;7.20;4.05;;;;;;;5.36;45.44;99265.56;5051580;28;20041;-69
2021/01/23 09:39:38;;;;;;;8.10;4.28;;;;;;;5.40;45.54;99261.59;5053536;28;20045;-69
2021/01/23 09:42:05;;;;;;;6.30;3.60;;;;;;;5.40;45.42;99267.88;5051546;28;20045;-69
2021/01/23 09:44:35;;;;;;;8.13;4.32;;;;;;;5.42;45.53;99265.91;5053905;28;20048;-69
2021/01/23 09:47:04;;;;;;;7.65;4.28;;;;;;;5.45;45.41;99268.31;5049904;28;20041;-69
2021/01/23 09:49:31;;;;;;;6.13;3.95;;;;;;;5.48;45.44;99269.94;5043341;28;20134;-69
2021/01/23 09:52:18;;;;;;;6.68;4.30;;;;;;;5.50;45.73;99268.81;5043897;28;20094;-69
2021/01/23 09:54:46;;;;;;;6.65;4.15;;;;;;;5.54;45.49;99267.53;5055528;28;20438;-69
2021/01/23 09:57:14;;;;;;;6.63;4.20;;;;;;;5.55;45.58;99261.09;5061554;28;20090;-69
2021/01/23 09:59:41;;;;;;;7.35;4.55;;;;;;;5.58;45.46;99260.84;5052463;28;20148;-69
2021/01/23 10:02:08;;;;;;;6.32;3.83;;;;;;;5.60;45.58;99256.09;5054303;28;20065;-69
2021/01/23 10:04:44;;;;;;;8.48;4.28;;;;;;;5.64;45.61;99258.53;5043006;28;20048;-69
2021/01/23 10:07:12;;;;;;;7.80;4.07;;;;;;;5.68;45.67;99260.00;5056019;28;20058;-69
2021/01/23 10:09:39;;;;;;;6.88;4.13;;;;;;;5.71;45.63;99256.97;5046742;28;20093;-68
2021/01/23 10:12:08;;;;;;;6.97;4.43;;;;;;;5.75;45.67;99253.00;5063255;28;20049;-69
2021/01/23 10:14:36;;;;;;;7.18;4.07;;;;;;;5.78;45.63;99252.72;5063632;28;20117;-69
2021/01/23 10:17:04;;;;;;;6.80;3.95;;;;;;;5.80;45.80;99243.44;5057110;28;20045;-69
2021/01/23 10:19:34;;;;;;;7.72;4.13;;;;;;;5.84;45.62;99235.88;5059064;28;20579;-69
2021/01/23 10:22:01;;;;;;;7.07;4.85;;;;;;;5.88;45.54;99237.31;5058793;28;20055;-68
2021/01/23 10:24:48;;;;;;;7.32;3.72;;;;;;;5.89;45.73;99234.44;5053138;28;20037;-68
2021/01/23 10:27:37;;;;;;;6.63;4.20;;;;;;;5.95;45.64;99242.00;5052513;28;20045;-68
2021/01/23 10:30:25;;;;;;;7.15;4.13;;;;;;;5.99;45.62;99239.88;5055645;28;20045;-69
2021/01/23 10:33:12;;;;;;;7.68;3.83;;;;;;;6.04;45.79;99236.72;5076168;28;20391;-69
2021/01/23 10:36:00;;;;;;;8.07;4.38;;;;;;;6.10;45.81;99233.44;5063412;28;20041;-68
2021/01/23 10:38:28;;;;;;;5.57;3.50;;;;;;;6.15;45.75;99223.88;5062535;28;20394;-69
2021/01/23 10:40:55;;;;;;;5.22;3.05;;;;;;;6.19;45.65;99238.00;5063747;28;20075;-68
2021/01/23 10:43:23;;;;;;;4.80;2.70;;;;;;;6.25;45.51;99224.69;5060307;28;20036;-69
2021/01/23 10:45:50;;;;;;;4.88;3.00;;;;;;;6.29;45.46;99225.28;5056686;28;20120;-69
2021/01/23 10:48:26;;;;;;;5.28;3.20;;;;;;;6.33;45.22;99222.16;5062709;28;20064;-69
2021/01/23 10:51:14;;;;;;;4.97;2.80;;;;;;;6.35;45.25;99214.69;5065849;28;20053;-69
2021/01/23 10:53:41;;;;;;;5.28;2.80;;;;;;;6.43;44.98;99221.25;5054858;28;20037;-69
2021/01/23 10:56:28;;;;;;;6.38;3.05;;;;;;;6.46;44.93;99219.09;5047787;28;20452;-69
2021/01/23 10:59:17;;;;;;;4.80;2.78;;;;;;;6.51;44.97;99214.09;5054869;28;20098;-69
2021/01/23 11:02:04;;;;;;;5.47;2.83;;;;;;;6.55;45.21;99210.09;5056855;28;20060;-69
2021/01/23 11:04:51;;;;;;;5.45;2.80;;;;;;;6.59;44.82;99206.06;5050832;28;20044;-68
2021/01/23 11:07:38;;;;;;;5.30;2.90;;;;;;;6.64;44.69;99202.91;5050177;28;20080;-68
2021/01/23 11:10:25;;;;;;;4.95;2.92;;;;;;;6.69;44.76;99208.75;5060126;28;20049;-68
2021/01/23 11:13:12;;;;;;;4.78;3.05;;;;;;;6.71;44.58;99202.16;5057449;28;20093;-68
2021/01/23 11:16:01;;;;;;;5.32;3.03;;;;;;;6.78;44.43;99202.44;5052258;28;20048;-68
2021/01/23 11:18:48;;;;;;;4.88;2.47;;;;;;;6.80;44.55;99196.84;5052920;28;20408;-68
2021/01/23 11:21:35;;;;;;;5.50;2.95;;;;;;;6.85;44.36;99192.66;5050726;28;20526;-68
2021/01/23 11:24:22;;;;;;;5.13;3.00;;;;;;;6.88;44.15;99186.94;5045990;28;20056;-69
2021/01/23 11:27:09;;;;;;;6.25;2.60;;;;;;;6.92;44.34;99191.06;5051229;28;20049;-67
2021/01/23 11:30:05;;;;;;;5.18;2.60;;;;;;;6.95;44.40;99190.78;5047810;28;20045;-68
2021/01/23 11:32:54;;;;;;;4.55;2.83;;;;;;;7.00;44.06;99188.44;5060622;28;20045;-68
2021/01/23 11:35:45;;;;;;;4.90;2.60;;;;;;;7.02;44.08;99191.03;5059595;28;20553;-68
2021/01/23 11:38:32;;;;;;;4.25;2.38;;;;;;;7.06;43.92;99187.03;5059629;28;20105;-69
2021/01/23 11:41:20;;;;;;;4.30;2.65;;;;;;;7.08;43.82;99190.44;5053191;28;20233;-69
2021/01/23 11:44:07;;;;;;;4.47;2.80;;;;;;;7.10;44.04;99180.28;5053482;28;20061;-68
2021/01/23 11:46:54;;;;;;;4.82;2.70;;;;;;;7.13;43.65;99180.00;5051812;28;20076;-69
2021/01/23 11:49:42;;;;;;;5.63;3.00;;;;;;;7.17;43.49;99177.81;5053087;28;20037;-68
2021/01/23 11:52:29;;;;;;;5.03;2.60;;;;;;;7.17;43.53;99165.06;5051948;28;20049;-68
2021/01/23 11:55:16;;;;;;;5.25;2.58;;;;;;;7.20;43.46;99163.91;5054009;28;20129;-68
2021/01/23 11:58:04;;;;;;;4.35;2.58;;;;;;;7.22;43.57;99161.91;5059736;28;20053;-69
2021/01/23 12:00:52;;;;;;;4.90;2.70;;;;;;;7.24;43.42;99157.19;5032702;28;20075;-69
2021/01/23 12:03:19;;;;;;;6.03;2.80;;;;;;;7.26;43.31;99150.56;5046923;28;20055;-69
2021/01/23 12:05:49;;;;;;;4.60;2.58;;;;;;;7.28;43.22;99154.00;5051153;28;20127;-69
2021/01/23 12:08:17;;;;;;;5.38;2.60;;;;;;;7.28;43.17;99148.53;5048414;28;20090;-70
2021/01/23 12:10:45;;;;;;;4.13;2.38;;;;;;;7.31;43.02;99147.41;5059933;28;20576;-70
2021/01/23 12:13:14;;;;;;;5.50;2.30;;;;;;;7.30;43.17;99134.81;5055433;28;20068;-69
2021/01/23 12:16:01;;;;;;;4.75;3.05;;;;;;;7.30;42.94;99135.66;5059791;28;20121;-68
2021/01/23 12:18:37;;;;;;;5.38;3.40;;;;;;;7.32;42.86;99130.94;5056877;28;20579;-68
2021/01/23 12:21:26;;;;;;;4.35;2.60;;;;;;;7.33;42.83;99121.72;5052909;28;20075;-68
2021/01/23 12:23:53;;;;;;;5.05;2.72;;;;;;;7.34;42.78;99112.56;5057298;28;20060;-68
2021/01/23 12:26:40;;;;;;;4.82;2.50;;;;;;;7.34;42.62;99109.00;5051992;28;20041;-68
2021/01/23 12:29:08;;;;;;;4.00;2.40;;;;;;;7.36;42.68;99112.41;5055542;28;20099;-68